Time;durP1;ratioP1;P1;durP2;ratioP2;P2;SDS_P1;SDS_P2;PMS_P1;PMS_P2;Temp;Humidity;BMP_temperature;BMP_pressure;BME280_temperature;BME280_humidity;BME280_pressure;Samples;Min_cycle;Max_cycle;Signal;HPM_P1;HPM_P2
2021/05/18 00:01:47;;;;;;;;;;;;;;;7.26;100.00;99899.44;5073599;28;19925;-69
2021/05/18 00:04:13;;;;;;;;;;;;;;;7.23;100.00;99901.50;5073800;28;19928;-69
2021/05/18 00:06:41;;;;;;;;;;;;;;;7.17;100.00;99905.56;5073929;28;19956;-69
2021/05/18 00:11:50;;;;;;;;;;;;;;;7.09;100.00;99908.88;5036028;28;19970;-69
2021/05/18 00:14:17;;;;;;;;;;;;;;;7.07;100.00;99908.16;5053297;28;20332;-68
2021/05/18 00:16:43;;;;;;;;;;;;;;;7.06;100.00;99910.97;5053251;28;19937;-69
2021/05/18 00:19:09;;;;;;;;;;;;;;;7.07;100.00;99910.84;5034775;28;19925;-68
2021/05/18 00:21:36;;;;;;;;;;;;;;;7.06;100.00;99914.53;5053602;28;19924;-68
2021/05/18 00:24:02;;;;;;;;;;;;;;;7.08;100.00;99917.97;5053500;28;20338;-68
2021/05/18 00:26:28;;;;;;;;;;;;;;;7.06;100.00;99911.81;5035272;28;19960;-68
2021/05/18 00:28:54;;;;;;;;;;;;;;;7.02;100.00;99913.06;5053505;28;19932;-69
2021/05/18 00:31:20;;;;;;;;;;;;;;;6.98;100.00;99922.38;5053151;28;20002;-68
2021/05/18 00:33:46;;;;;;;;;;;;;;;6.97;100.00;99916.09;5053287;28;19925;-69
2021/05/18 00:36:13;;;;;;;;;;;;;;;6.92;100.00;99918.34;5052834;28;20019;-69
2021/05/18 00:38:40;;;;;;;;;;;;;;;6.88;100.00;99919.53;5052941;28;19925;-69
2021/05/18 00:41:06;;;;;;;;;;;;;;;6.85;100.00;99925.16;5052990;28;20294;-69
2021/05/18 00:43:32;;;;;;;;;;;;;;;6.83;100.00;99925.28;5034959;28;19929;-69
2021/05/18 00:45:58;;;;;;;;;;;;;;;6.81;100.00;99924.53;5053119;28;19925;-68
2021/05/18 00:48:24;;;;;;;;;;;;;;;6.84;100.00;99924.31;5035153;28;20336;-69
2021/05/18 00:50:53;;;;;;;;;;;;;;;6.85;100.00;99927.88;5034995;28;19959;-69
2021/05/18 00:53:19;;;;;;;;;;;;;;;6.87;100.00;99932.16;5052435;28;20276;-69
2021/05/18 00:55:56;;;;;;;;;;;;;;;6.87;100.00;99934.88;5034839;28;19924;-69
2021/05/18 00:58:30;;;;;;;;;;;;;;;6.85;100.00;99928.75;5052783;28;20356;-69
2021/05/18 01:00:59;;;;;;;;;;;;;;;6.82;100.00;99934.38;5052710;28;19929;-69
2021/05/18 01:03:25;;;;;;;;;;;;;;;6.81;100.00;99932.63;5052606;28;19932;-69
2021/05/18 01:08:35;;;;;;;;;;;;;;;6.74;100.00;99936.81;5052417;28;19952;-69
2021/05/18 01:11:02;;;;;;;;;;;;;;;6.72;100.00;99932.50;5052218;28;20380;-69
2021/05/18 01:13:30;;;;;;;;;;;;;;;6.72;100.00;99946.00;5052287;28;19924;-69
2021/05/18 01:15:56;;;;;;;;;;;;;;;6.71;100.00;99945.13;5034581;28;20295;-69
2021/05/18 01:18:21;;;;;;;;;;;;;;;6.68;100.00;99945.34;5052441;28;20023;-69
2021/05/18 01:20:54;;;;;;;;;;;;;;;6.67;100.00;99954.44;5052517;28;20028;-68
2021/05/18 01:23:20;;;;;;;;;;;;;;;6.66;100.00;99950.03;5052298;28;20008;-69
2021/05/18 01:25:46;;;;;;;;;;;;;;;6.63;100.00;99951.13;5052193;28;19979;-69
2021/05/18 01:28:12;;;;;;;;;;;;;;;6.61;100.00;99950.38;5034271;28;19936;-69
2021/05/18 01:30:38;;;;;;;;;;;;;;;6.58;100.00;99965.94;5032738;28;19975;-69
2021/05/18 01:33:05;;;;;;;;;;;;;;;6.53;100.00;99972.56;5052052;28;20363;-68
2021/05/18 01:35:30;;;;;;;;;;;;;;;6.49;100.00;99965.69;5052284;28;19932;-69
2021/05/18 01:37:58;;;;;;;;;;;;;;;6.47;100.00;99966.78;5017334;28;19925;-68
2021/05/18 01:43:08;;;;;;;;;;;;;;;6.32;100.00;99966.06;5032348;28;19957;-69
2021/05/18 01:45:34;;;;;;;;;;;;;;;6.26;100.00;99966.56;5034197;28;19924;-69
2021/05/18 01:48:05;;;;;;;;;;;;;;;6.22;100.00;99962.38;5033492;28;20406;-69
2021/05/18 01:50:40;;;;;;;;;;;;;;;6.15;100.00;99959.28;5033734;28;19925;-69
2021/05/18 01:53:08;;;;;;;;;;;;;;;6.07;100.00;99965.22;5051457;28;19924;-68
2021/05/18 01:55:37;;;;;;;;;;;;;;;6.02;100.00;99975.50;5033646;28;19924;-69
2021/05/18 01:58:03;;;;;;;;;;;;;;;5.95;100.00;99974.19;5051606;28;19982;-69
2021/05/18 02:00:40;;;;;;;;;;;;;;;5.87;100.00;99978.31;5033637;28;19928;-68
2021/05/18 02:03:17;;;;;;;;;;;;;;;5.86;100.00;99973.03;5033587;28;19924;-68
2021/05/18 02:05:43;;;;;;;;;;;;;;;5.80;100.00;99985.13;5033901;28;19972;-69
2021/05/18 02:08:31;;;;;;;;;;;;;;;5.76;100.00;99989.00;5050908;28;19964;-68
2021/05/18 02:11:00;;;;;;;;;;;;;;;5.73;100.00;99991.91;5033797;28;19964;-68
2021/05/18 02:13:26;;;;;;;;;;;;;;;5.70;100.00;99994.84;5035855;28;20407;-68
2021/05/18 02:15:58;;;;;;;;;;;;;;;5.64;100.00;99990.75;5033750;28;19991;-68
2021/05/18 02:18:48;;;;;;;;;;;;;;;5.60;100.00;99996.47;5050959;28;19983;-68
2021/05/18 02:21:36;;;;;;;;;;;;;;;5.57;100.00;100004.78;5033536;28;19933;-68
2021/05/18 02:26:47;;;;;;;;;;;;;;;5.60;100.00;100008.13;5050958;28;19925;-69
2021/05/18 02:29:13;;;;;;;;;;;;;;;5.57;100.00;100000.25;5050965;28;19933;-69
2021/05/18 02:31:40;;;;;;;;;;;;;;;5.57;100.00;100008.31;5033180;28;19931;-68
2021/05/18 02:34:22;;;;;;;;;;;;;;;5.58;100.00;100006.50;5033229;28;19928;-69
2021/05/18 02:36:48;;;;;;;;;;;;;;;5.58;100.00;100012.72;5050900;28;20281;-69
2021/05/18 02:39:15;;;;;;;;;;;;;;;5.56;100.00;100005.75;5050971;28;19929;-68
2021/05/18 02:41:41;;;;;;;;;;;;;;;5.56;100.00;100013.81;5033091;28;19968;-69
2021/05/18 02:44:12;;;;;;;;;;;;;;;5.56;100.00;100019.19;5050108;28;19960;-69
2021/05/18 02:49:29;;;;;;;;;;;;;;;5.61;100.00;100017.03;5052616;28;19925;-69
2021/05/18 02:51:55;;;;;;;;;;;;;;;5.70;100.00;100021.75;5070779;28;20291;-68
2021/05/18 02:54:24;;;;;;;;;;;;;;;5.74;100.00;100022.41;5057490;28;20342;-68
2021/05/18 02:56:53;;;;;;;;;;;;;;;5.73;100.00;100031.47;5053296;28;19981;-68
2021/05/18 02:59:19;;;;;;;;;;;;;;;5.92;100.00;100037.25;5050673;28;20422;-69
2021/05/18 03:01:46;;;;;;;;;;;;;;;6.01;100.00;100033.91;5050199;28;19932;-68
2021/05/18 03:04:12;;;;;;;;;;;;;;;6.11;100.00;100042.16;5032777;28;19925;-68
2021/05/18 03:06:39;;;;;;;;;;;;;;;6.10;100.00;100042.28;5032401;28;20008;-69
2021/05/18 03:09:09;;;;;;;;;;;;;;;6.10;100.00;100040.44;5050622;28;19932;-68
2021/05/18 03:11:36;;;;;;;;;;;;;;;6.09;100.00;100045.94;5050605;28;20042;-69
2021/05/18 03:14:02;;;;;;;;;;;;;;;6.10;100.00;100042.28;5050063;28;19925;-69
2021/05/18 03:16:28;;;;;;;;;;;;;;;6.15;100.00;100046.38;5050540;28;19931;-69
2021/05/18 03:18:54;;;;;;;;;;;;;;;6.15;100.00;100037.44;5049601;28;19932;-69
2021/05/18 03:21:19;;;;;;;;;;;;;;;6.13;100.00;100042.94;5050453;28;19925;-69
2021/05/18 03:23:45;;;;;;;;;;;;;;;6.11;100.00;100035.94;5044436;28;19924;-68
2021/05/18 03:26:11;;;;;;;;;;;;;;;6.14;100.00;100041.09;5070426;28;19933;-69
2021/05/18 03:28:38;;;;;;;;;;;;;;;6.11;100.00;100041.31;5070099;28;19931;-69
2021/05/18 03:34:24;;;;;;;;;;;;;;;6.08;100.00;100046.91;5070069;28;19928;-69
2021/05/18 03:36:42;;;;;;;;;;;;;;;6.16;100.00;100055.28;5065937;28;19928;-68
2021/05/18 03:39:08;;;;;;;;;;;;;;;6.32;100.00;100055.03;5070071;28;19925;-69
2021/05/18 03:41:45;;;;;;;;;;;;;;;6.38;100.00;100065.38;5070665;28;19924;-69
2021/05/18 03:44:18;;;;;;;;;;;;;;;6.45;100.00;100066.63;5051796;28;19931;-68
2021/05/18 03:52:20;;;;;;;;;;;;;;;6.87;100.00;100067.06;5041758;28;19997;-68
2021/05/18 03:54:55;;;;;;;;;;;;;;;6.95;100.00;100079.09;5053654;28;19975;-68
2021/05/18 04:02:59;;;;;;;;;;;;;;;7.30;100.00;100086.34;5053603;28;19932;-69
2021/05/18 04:11:27;;;;;;;;;;;;;;;7.65;100.00;100088.97;5053772;28;20015;-68
2021/05/18 04:19:22;;;;;;;;;;;;;;;7.98;100.00;100102.63;5071439;28;19943;-69
2021/05/18 04:22:01;;;;;;;;;;;;;;;8.09;100.00;100093.66;5073461;28;19925;-69
2021/05/18 04:41:21;;;;;;;;;;;;;;;9.75;100.00;100080.66;5053877;28;19924;-69
2021/05/18 04:52:07;;;;;;;;;;;;;;;9.91;100.00;100081.03;5058516;28;19925;-69
2021/05/18 04:55:16;;;;;;;;;;;;;;;9.97;100.00;100085.91;5052600;28;19928;-69
2021/05/18 05:00:37;;;;;;;;;;;;;;;10.28;100.00;100087.72;5043508;28;19924;-69
2021/05/18 05:03:34;;;;;;;;;;;;;;;10.35;100.00;100089.75;5072008;28;20015;-69
2021/05/18 05:08:49;;;;;;;;;;;;;;;10.46;100.00;100088.81;5056439;28;19929;-69
2021/05/18 05:14:22;;;;;;;;;;;;;;;10.55;100.00;100085.25;5070798;28;20019;-69
2021/05/18 05:16:49;;;;;;;;;;;;;;;10.61;100.00;100091.09;5051948;28;20377;-70
2021/05/18 05:19:15;;;;;;;;;;;;;;;10.60;100.00;100097.56;5052171;28;19928;-69
2021/05/18 05:21:42;;;;;;;;;;;;;;;10.68;100.00;100095.00;5034205;28;19943;-69
2021/05/18 05:24:08;;;;;;;;;;;;;;;10.64;100.00;100098.97;5034366;28;19973;-69
2021/05/18 05:26:34;;;;;;;;;;;;;;;10.53;100.00;100100.81;5034365;28;20292;-69
2021/05/18 05:29:00;;;;;;;;;;;;;;;10.60;100.00;100108.41;5033756;28;19932;-69
2021/05/18 05:31:26;;;;;;;;;;;;;;;10.65;100.00;100114.25;5050721;28;19929;-71
2021/05/18 05:33:52;;;;;;;;;;;;;;;10.67;100.00;100115.81;5050726;28;19924;-70
2021/05/18 05:36:18;;;;;;;;;;;;;;;10.77;100.00;100118.56;5050907;28;19925;-69
2021/05/18 05:38:45;;;;;;;;;;;;;;;11.00;100.00;100121.88;5048606;28;19954;-70
2021/05/18 05:41:11;;;;;;;;;;;;;;;11.20;100.00;100124.59;5092193;28;20411;-70
2021/05/18 05:43:36;;;;;;;;;;;;;;;11.45;100.00;100125.88;5092229;28;19952;-70
2021/05/18 05:46:02;;;;;;;;;;;;;;;11.56;100.00;100128.41;5073562;28;19925;-70
2021/05/18 05:48:28;;;;;;;;;;;;;;;11.57;100.00;100121.09;5078664;28;19928;-70
2021/05/18 05:50:54;;;;;;;;;;;;;;;11.71;100.00;100127.97;5051910;28;20007;-70
2021/05/18 05:53:20;;;;;;;;;;;;;;;11.82;100.00;100138.66;5046423;28;19929;-68
2021/05/18 05:55:46;;;;;;;;;;;;;;;11.76;100.00;100132.94;5052125;28;19925;-69
2021/05/18 05:58:12;;;;;;;;;;;;;;;11.80;100.00;100140.69;5069186;28;19966;-69
2021/05/18 06:00:39;;;;;;;;;;;;;;;11.86;100.00;100133.78;5071653;28;20451;-69
2021/05/18 06:03:05;;;;;;;;;;;;;;;12.01;100.00;100143.25;5071025;28;19928;-69
2021/05/18 06:05:30;;;;;;;;;;;;;;;11.95;100.00;100134.81;5051141;28;19925;-69
2021/05/18 06:07:56;;;;;;;;;;;;;;;11.96;100.00;100139.22;5033392;28;19948;-69
2021/05/18 06:10:26;;;;;;;;;;;;;;;11.97;100.00;100140.94;5052636;28;19951;-69
2021/05/18 06:13:04;;;;;;;;;;;;;;;11.86;100.00;100148.22;5053874;28;20387;-69
2021/05/18 06:43:04;;;;;;;;;;;;;;;11.63;100.00;100183.06;5050834;28;19925;-69
2021/05/18 06:46:03;;;;;;;;;;;;;;;11.72;100.00;100186.78;5050421;28;19971;-69
2021/05/18 06:48:29;;;;;;;;;;;;;;;11.89;100.00;100187.88;5050891;28;19929;-69
2021/05/18 06:50:55;;;;;;;;;;;;;;;11.98;100.00;100191.63;5050416;28;20414;-69
2021/05/18 06:53:21;;;;;;;;;;;;;;;12.12;100.00;100196.59;5050875;28;19975;-70
2021/05/18 06:55:49;;;;;;;;;;;;;;;12.27;100.00;100190.69;5050551;28;19925;-69
2021/05/18 06:58:18;;;;;;;;;;;;;;;12.51;100.00;100196.44;5050021;28;19975;-69
2021/05/18 07:00:46;;;;;;;;;;;;;;;12.68;100.00;100194.81;5050624;28;19925;-69
2021/05/18 07:03:13;;;;;;;;;;;;;;;12.90;100.00;100190.78;5050507;28;20371;-69
2021/05/18 07:05:45;;;;;;;;;;;;;;;13.16;100.00;100202.81;5032922;28;19936;-69
2021/05/18 07:08:54;;;;;;;;;;;;;;;13.36;100.00;100198.09;5052175;28;20407;-70
2021/05/18 07:11:09;;;;;;;;;;;;;;;13.43;100.00;100191.03;5048398;28;20364;-69
2021/05/18 07:13:35;;;;;;;;;;;;;;;13.54;100.00;100195.38;5066459;28;19925;-70
2021/05/18 07:16:02;;;;;;;;;;;;;;;13.52;100.00;100198.28;5068667;28;19925;-70
2021/05/18 07:18:27;;;;;;;;;;;;;;;13.69;100.00;100201.13;5070296;28;19947;-70
2021/05/18 07:20:53;;;;;;;;;;;;;;;13.51;100.00;100206.63;5070863;28;20383;-71
2021/05/18 07:23:23;;;;;;;;;;;;;;;13.66;100.00;100209.63;5033617;28;20027;-70
2021/05/18 07:25:48;;;;;;;;;;;;;;;13.94;100.00;100204.06;5056066;28;19970;-70
2021/05/18 07:28:16;;;;;;;;;;;;;;;13.73;100.00;100207.97;5053967;28;19987;-70
2021/05/18 07:30:42;;;;;;;;;;;;;;;13.70;100.00;100213.75;5055875;28;19928;-70
2021/05/18 07:33:09;;;;;;;;;;;;;;;13.86;100.00;100218.50;5055699;28;19982;-71
2021/05/18 07:35:35;;;;;;;;;;;;;;;13.99;100.00;100218.06;5067481;28;19991;-69
2021/05/18 07:38:01;;;;;;;;;;;;;;;14.11;100.00;100219.53;5056221;28;19938;-70
2021/05/18 07:40:27;;;;;;;;;;;;;;;14.42;100.00;100223.63;5036483;28;19928;-70
2021/05/18 07:42:53;;;;;;;;;;;;;;;14.70;100.00;100224.34;5055387;28;19978;-69
2021/05/18 07:45:20;;;;;;;;;;;;;;;14.78;100.00;100220.75;5060607;28;19929;-69
2021/05/18 07:47:46;;;;;;;;;;;;;;;14.90;100.00;100219.47;5052751;28;19924;-70
2021/05/18 07:50:15;;;;;;;;;;;;;;;14.49;100.00;100239.19;5056367;28;19925;-70
2021/05/18 08:01:03;;;;;;;;;;;;;;;13.56;100.00;100240.56;5053989;28;19925;-68
2021/05/18 08:06:14;;;;;;;;;;;;;;;13.66;100.00;100242.38;5073680;28;19931;-68
2021/05/18 08:08:40;;;;;;;;;;;;;;;13.79;100.00;100240.09;5074164;28;19924;-68
2021/05/18 08:11:06;;;;;;;;;;;;;;;13.85;100.00;100242.16;5073497;28;20376;-68
2021/05/18 08:13:32;;;;;;;;;;;;;;;13.73;100.00;100237.97;5056487;28;19943;-68
2021/05/18 08:21:51;;;;;;;;;;;;;;;13.63;100.00;100238.06;5054024;28;20439;-68
2021/05/18 09:29:49;;;;;;;;;;;;;;;13.67;100.00;100277.66;5041129;28;19930;-69
2021/05/18 10:35:28;;;;;;;;;;;;;;;12.54;100.00;100337.72;5051044;28;19925;-70
2021/05/18 10:37:59;;;;;;;;;;;;;;;12.28;100.00;100333.88;5033192;28;20434;-69
2021/05/18 10:40:31;;;;;;;;;;;;;;;12.48;100.00;100345.59;5050972;28;19935;-70
2021/05/18 10:43:04;;;;;;;;;;;;;;;12.42;100.00;100347.06;5051304;28;19980;-69
2021/05/18 10:45:45;;;;;;;;;;;;;;;12.41;100.00;100350.78;5051069;28;19971;-69
2021/05/18 10:48:11;;;;;;;;;;;;;;;12.65;100.00;100346.72;5050420;28;19925;-71
2021/05/18 10:50:40;;;;;;;;;;;;;;;12.66;100.00;100343.00;5051234;28;19951;-70
2021/05/18 10:53:20;;;;;;;;;;;;;;;13.11;100.00;100352.28;5032898;28;20392;-70
2021/05/18 10:56:00;;;;;;;;;;;;;;;13.00;100.00;100324.25;5051094;28;19932;-71
2021/05/18 10:58:27;;;;;;;;;;;;;;;12.97;100.00;100343.59;5050145;28;19928;-70
2021/05/18 11:00:53;;;;;;;;;;;;;;;13.07;100.00;100349.03;5051209;28;19925;-70
2021/05/18 11:03:19;;;;;;;;;;;;;;;13.46;100.00;100348.00;5038714;28;19932;-70
2021/05/18 11:05:45;;;;;;;;;;;;;;;13.30;100.00;100341.28;5057443;28;19936;-70
2021/05/18 11:08:14;;;;;;;;;;;;;;;13.75;100.00;100336.00;5057366;28;20311;-71
2021/05/18 11:10:41;;;;;;;;;;;;;;;14.55;100.00;100342.34;5057196;28;19978;-70
2021/05/18 11:13:09;;;;;;;;;;;;;;;15.01;100.00;100335.81;5057411;28;19932;-70
2021/05/18 11:15:35;;;;;;;;;;;;;;;15.48;100.00;100324.38;5057156;28;19924;-70
2021/05/18 11:18:03;;;;;;;;;;;;;;;15.00;100.00;100334.94;5039418;28;19932;-70
2021/05/18 11:20:45;;;;;;;;;;;;;;;14.52;100.00;100337.22;5057675;28;19929;-70
2021/05/18 11:23:24;;;;;;;;;;;;;;;14.46;100.00;100342.47;5056656;28;19955;-70
2021/05/18 11:25:53;;;;;;;;;;;;;;;14.02;100.00;100335.94;5057434;28;19925;-70
2021/05/18 11:28:20;;;;;;;;;;;;;;;13.79;100.00;100332.84;5039072;28;19924;-70
2021/05/18 11:30:47;;;;;;;;;;;;;;;13.44;100.00;100342.69;5057592;28;19925;-70
2021/05/18 11:33:14;;;;;;;;;;;;;;;13.17;100.00;100344.34;5056909;28;20346;-70
2021/05/18 11:35:39;;;;;;;;;;;;;;;13.01;100.00;100341.44;5057107;28;19971;-70
2021/05/18 11:38:07;;;;;;;;;;;;;;;13.28;100.00;100361.53;5044705;28;19928;-70
2021/05/18 11:40:48;;;;;;;;;;;;;;;13.94;100.00;100352.25;5068646;28;19964;-69
2021/05/18 11:43:16;;;;;;;;;;;;;;;15.00;100.00;100347.75;5061518;28;20333;-68
2021/05/18 11:45:42;;;;;;;;;;;;;;;15.31;100.00;100334.44;5077222;28;19924;-68
2021/05/18 11:48:11;;;;;;;;;;;;;;;15.17;100.00;100335.88;5058885;28;19924;-68
2021/05/18 11:50:37;;;;;;;;;;;;;;;14.98;100.00;100345.19;5076152;28;19924;-69
2021/05/18 11:53:03;;;;;;;;;;;;;;;14.74;100.00;100335.00;5076899;28;19928;-70
2021/05/18 11:55:30;;;;;;;;;;;;;;;14.39;100.00;100343.09;5064453;28;20050;-68
2021/05/18 11:57:57;;;;;;;;;;;;;;;13.94;100.00;100343.22;5040157;28;19990;-68
2021/05/18 12:00:25;;;;;;;;;;;;;;;13.51;100.00;100351.13;5056727;28;20414;-70
2021/05/18 12:03:05;;;;;;;;;;;;;;;13.06;100.00;100353.59;5039029;28;19932;-68
2021/05/18 12:05:31;;;;;;;;;;;;;;;12.64;100.00;100364.94;5056772;28;19948;-68
2021/05/18 12:07:57;;;;;;;;;;;;;;;12.21;100.00;100361.69;5057017;28;20446;-68
2021/05/18 12:10:26;;;;;;;;;;;;;;;12.14;100.00;100374.16;5056799;28;19925;-68
2021/05/18 12:12:52;;;;;;;;;;;;;;;11.92;100.00;100371.66;5062225;28;19924;-68
2021/05/18 12:15:18;;;;;;;;;;;;;;;11.92;100.00;100369.81;5073295;28;19924;-68
2021/05/18 12:17:44;;;;;;;;;;;;;;;12.21;100.00;100374.44;5072810;28;19948;-67
2021/05/18 12:20:14;;;;;;;;;;;;;;;12.68;100.00;100373.66;5061028;28;19925;-68
2021/05/18 12:22:44;;;;;;;;;;;;;;;13.29;100.00;100371.44;5035857;28;19925;-68
2021/05/18 12:25:10;;;;;;;;;;;;;;;13.73;100.00;100368.91;5054945;28;19932;-68
2021/05/18 12:27:46;;;;;;;;;;;;;;;14.09;100.00;100362.63;5046456;28;20384;-68
2021/05/18 12:30:12;;;;;;;;;;;;;;;14.28;100.00;100367.03;5038574;28;20271;-68
2021/05/18 12:32:46;;;;;;;;;;;;;;;14.89;100.00;100359.84;5058192;28;19937;-68
2021/05/18 12:35:16;;;;;;;;;;;;;;;15.30;100.00;100357.31;5052857;28;19925;-68
2021/05/18 12:37:44;;;;;;;;;;;;;;;15.35;100.00;100349.47;5053347;28;19925;-68
2021/05/18 12:40:13;;;;;;;;;;;;;;;15.69;100.00;100350.44;5053046;28;19956;-68
2021/05/18 12:42:40;;;;;;;;;;;;;;;16.12;100.00;100347.63;5069327;28;20344;-68
2021/05/18 12:45:07;;;;;;;;;;;;;;;16.65;100.00;100338.00;5072577;28;19925;-68
2021/05/18 12:47:35;;;;;;;;;;;;;;;17.19;100.00;100342.00;5072545;28;19960;-68
2021/05/18 12:50:02;;;;;;;;;;;;;;;17.48;100.00;100338.59;5054835;28;20331;-69
2021/05/18 12:52:35;;;;;;;;;;;;;;;17.38;100.00;100344.31;5054098;28;19975;-68
2021/05/18 12:55:00;;;;;;;;;;;;;;;16.98;100.00;100337.09;5061118;28;19925;-68
2021/05/18 12:57:28;;;;;;;;;;;;;;;17.37;100.00;100330.75;5049462;28;19994;-68
2021/05/18 12:59:58;;;;;;;;;;;;;;;17.82;100.00;100325.53;5051331;28;19932;-71
2021/05/18 13:02:27;;;;;;;;;;;;;;;17.76;100.00;100334.50;5053115;28;19931;-69
2021/05/18 13:05:02;;;;;;;;;;;;;;;17.93;100.00;100335.28;5060705;28;19936;-68
2021/05/18 13:07:28;;;;;;;;;;;;;;;18.14;100.00;100337.34;5060357;28;19935;-69
2021/05/18 13:10:04;;;;;;;;;;;;;;;19.00;100.00;100326.06;5062854;28;19964;-69
2021/05/18 13:12:30;;;;;;;;;;;;;;;18.51;100.00;100324.69;5034570;28;19933;-69
2021/05/18 13:14:56;;;;;;;;;;;;;;;18.36;100.00;100335.63;5061889;28;19936;-70
2021/05/18 13:17:22;;;;;;;;;;;;;;;17.77;100.00;100328.84;5072331;28;19932;-69
2021/05/18 13:19:56;;;;;;;;;;;;;;;17.02;100.00;100333.84;5054906;28;20062;-68
2021/05/18 13:22:23;;;;;;;;;;;;;;;16.78;100.00;100331.13;5072641;28;19925;-68
2021/05/18 13:27:33;;;;;;;;;;;;;;;16.95;100.00;100337.44;5044735;28;19929;-68
2021/05/18 13:29:58;;;;;;;;;;;;;;;16.34;100.00;100337.84;5061730;28;19986;-68
2021/05/18 13:32:24;;;;;;;;;;;;;;;16.17;100.00;100326.06;5072473;28;20354;-68
2021/05/18 13:34:50;;;;;;;;;;;;;;;15.92;100.00;100331.50;5072355;28;19947;-67
2021/05/18 13:37:16;;;;;;;;;;;;;;;15.84;100.00;100337.81;5071696;28;19929;-68
2021/05/18 13:39:42;;;;;;;;;;;;;;;15.98;100.00;100341.78;5072411;28;19994;-68
2021/05/18 13:42:08;;;;;;;;;;;;;;;16.23;100.00;100341.78;5072164;28;19932;-67
2021/05/18 13:44:34;;;;;;;;;;;;;;;16.44;100.00;100338.53;5072228;28;19924;-67
2021/05/18 13:47:00;;;;;;;;;;;;;;;15.92;100.00;100330.66;5072228;28;19936;-67
2021/05/18 13:49:26;;;;;;;;;;;;;;;15.79;100.00;100339.31;5071679;28;19929;-68
2021/05/18 13:51:52;;;;;;;;;;;;;;;15.77;100.00;100344.09;5072168;28;19924;-67
2021/05/18 13:54:18;;;;;;;;;;;;;;;15.73;100.00;100346.34;5058124;28;19932;-68
2021/05/18 13:56:45;;;;;;;;;;;;;;;16.15;100.00;100337.16;5051993;28;19924;-67
2021/05/18 13:59:11;;;;;;;;;;;;;;;16.47;100.00;100338.19;5051881;28;19987;-68
2021/05/18 14:01:37;;;;;;;;;;;;;;;16.52;100.00;100337.69;5051667;28;20388;-68
2021/05/18 14:04:03;;;;;;;;;;;;;;;16.43;100.00;100335.97;5051295;28;20456;-68
2021/05/18 14:06:30;;;;;;;;;;;;;;;15.99;100.00;100335.28;5033483;28;19979;-68
2021/05/18 14:08:56;;;;;;;;;;;;;;;15.84;100.00;100336.97;5051764;28;20007;-68
2021/05/18 14:11:23;;;;;;;;;;;;;;;15.66;100.00;100353.47;5052085;28;19955;-68
2021/05/18 14:13:50;;;;;;;;;;;;;;;15.47;100.00;100349.16;5054362;28;19986;-68
2021/05/18 14:16:18;;;;;;;;;;;;;;;15.39;100.00;100348.13;5051256;28;20387;-68
2021/05/18 14:18:46;;;;;;;;;;;;;;;15.34;100.00;100346.88;5050797;28;19925;-68
2021/05/18 14:21:12;;;;;;;;;;;;;;;15.44;100.00;100339.41;5032548;28;20335;-68
2021/05/18 14:23:42;;;;;;;;;;;;;;;15.47;100.00;100343.69;5050738;28;19933;-68
2021/05/18 14:26:08;;;;;;;;;;;;;;;15.46;100.00;100345.56;5050944;28;19960;-68
2021/05/18 14:28:35;;;;;;;;;;;;;;;15.62;100.00;100344.78;5051133;28;20380;-68
2021/05/18 14:31:04;;;;;;;;;;;;;;;15.77;100.00;100350.44;5049951;28;19925;-67
2021/05/18 14:33:30;;;;;;;;;;;;;;;15.74;100.00;100348.91;5052498;28;20386;-68
2021/05/18 14:35:56;;;;;;;;;;;;;;;15.43;100.00;100347.78;5050415;28;19925;-67
2021/05/18 14:38:23;;;;;;;;;;;;;;;15.30;100.00;100350.97;5058812;28;20461;-68
2021/05/18 14:46:30;;;;;;;;;;;;;;;15.33;100.00;100351.50;5050135;28;19929;-68
2021/05/18 14:54:49;;;;;;;;;;;;;;;15.55;100.00;100360.13;5032449;28;20008;-67
2021/05/18 14:57:15;;;;;;;;;;;;;;;15.79;100.00;100359.31;5050071;28;20288;-67
2021/05/18 14:59:41;;;;;;;;;;;;;;;15.65;100.00;100354.53;5049987;28;19925;-67
2021/05/18 15:02:08;;;;;;;;;;;;;;;15.52;100.00;100355.00;5049924;28;20004;-68
2021/05/18 15:04:35;;;;;;;;;;;;;;;15.54;100.00;100356.53;5049811;28;20416;-68
2021/05/18 15:07:04;;;;;;;;;;;;;;;15.61;100.00;100361.34;5066544;28;19929;-68
2021/05/18 15:09:30;;;;;;;;;;;;;;;15.65;100.00;100354.53;5069931;28;19979;-68
2021/05/18 15:11:56;;;;;;;;;;;;;;;15.70;100.00;100352.13;5051729;28;20400;-67
2021/05/18 15:14:22;;;;;;;;;;;;;;;15.74;100.00;100353.53;5051473;28;19932;-72
2021/05/18 15:16:48;;;;;;;;;;;;;;;15.70;100.00;100358.47;5070645;28;19932;-72
2021/05/18 15:19:17;;;;;;;;;;;;;;;15.25;100.00;100361.56;5055058;28;20389;-68
2021/05/18 15:21:42;;;;;;;;;;;;;;;15.01;100.00;100363.16;5053644;28;19960;-68
2021/05/18 15:24:09;;;;;;;;;;;;;;;14.85;100.00;100362.03;5056380;28;20399;-68
2021/05/18 15:26:35;;;;;;;;;;;;;;;14.72;100.00;100361.59;5069365;28;19931;-68
2021/05/18 15:29:00;;;;;;;;;;;;;;;14.52;100.00;100355.47;5055640;28;19929;-68
2021/05/18 15:31:27;;;;;;;;;;;;;;;14.47;100.00;100358.69;5060307;28;19933;-67
2021/05/18 15:33:52;;;;;;;;;;;;;;;14.59;100.00;100356.56;5057687;28;20007;-67
2021/05/18 15:36:19;;;;;;;;;;;;;;;14.62;100.00;100358.94;5040524;28;20403;-67
2021/05/18 15:38:47;;;;;;;;;;;;;;;14.67;100.00;100366.69;5069425;28;19967;-67
2021/05/18 15:41:13;;;;;;;;;;;;;;;14.73;100.00;100366.06;5070703;28;19970;-67
2021/05/18 15:43:39;;;;;;;;;;;;;;;15.07;100.00;100357.00;5061167;28;19924;-68
2021/05/18 15:46:05;;;;;;;;;;;;;;;15.31;100.00;100359.03;5048878;28;19994;-72
2021/05/18 15:48:31;;;;;;;;;;;;;;;15.54;100.00;100362.00;5051703;28;19939;-68
2021/05/18 15:50:57;;;;;;;;;;;;;;;15.72;100.00;100367.34;5072430;28;19924;-68
2021/05/18 15:53:24;;;;;;;;;;;;;;;15.80;100.00;100362.94;5073767;28;20384;-67
2021/05/18 15:55:50;;;;;;;;;;;;;;;15.87;100.00;100361.25;5067096;28;19933;-67
2021/05/18 15:58:16;;;;;;;;;;;;;;;15.80;100.00;100369.28;5073150;28;19952;-67
2021/05/18 16:00:42;;;;;;;;;;;;;;;15.95;100.00;100363.16;5073757;28;19925;-67
2021/05/18 16:03:08;;;;;;;;;;;;;;;15.75;100.00;100363.41;5072697;28;19964;-67
2021/05/18 16:05:34;;;;;;;;;;;;;;;15.69;100.00;100364.97;5073406;28;19994;-67
2021/05/18 16:08:06;;;;;;;;;;;;;;;15.60;100.00;100365.97;5071466;28;19924;-67
2021/05/18 16:10:32;;;;;;;;;;;;;;;15.90;100.00;100367.25;5055614;28;20394;-68
2021/05/18 16:12:59;;;;;;;;;;;;;;;15.67;100.00;100361.53;5053555;28;19932;-67
2021/05/18 16:15:24;;;;;;;;;;;;;;;15.58;100.00;100365.28;5035593;28;19925;-68
2021/05/18 16:17:51;;;;;;;;;;;;;;;15.54;100.00;100364.75;5036762;28;19925;-68
2021/05/18 16:20:17;;;;;;;;;;;;;;;15.44;100.00;100364.03;5054993;28;20074;-67
2021/05/18 16:22:43;;;;;;;;;;;;;;;15.45;100.00;100365.75;5073507;28;19959;-67
2021/05/18 16:25:09;;;;;;;;;;;;;;;15.34;100.00;100363.28;5073622;28;20038;-68
2021/05/18 16:27:36;;;;;;;;;;;;;;;15.32;100.00;100363.47;5053226;28;19929;-67
2021/05/18 16:30:02;;;;;;;;;;;;;;;15.39;100.00;100367.25;5053377;28;19925;-67
2021/05/18 16:32:27;;;;;;;;;;;;;;;15.55;100.00;100361.00;5019305;28;19931;-67
2021/05/18 16:34:53;;;;;;;;;;;;;;;15.52;100.00;100360.47;5052904;28;19925;-67
2021/05/18 16:37:19;;;;;;;;;;;;;;;16.24;100.00;100363.53;5036515;28;19929;-67
2021/05/18 16:39:45;;;;;;;;;;;;;;;16.94;100.00;100361.25;5053180;28;20385;-67
2021/05/18 16:42:11;;;;;;;;;;;;;;;17.96;100.00;100359.63;5070494;28;19932;-67
2021/05/18 16:44:38;;;;;;;;;;;;;;;19.02;96.98;100363.34;5073102;28;20346;-67
2021/05/18 16:47:04;;;;;;;;;;;;;;;19.35;90.31;100368.47;5060282;28;20015;-68
2021/05/18 16:49:29;;;;;;;;;;;;;;;19.58;88.44;100359.22;5063868;28;19935;-68
2021/05/18 16:51:55;;;;;;;;;;;;;;;19.25;79.20;100367.91;5064233;28;19947;-68
2021/05/18 16:54:21;;;;;;;;;;;;;;;18.87;74.89;100360.56;5070657;28;20330;-68
2021/05/18 16:56:50;;;;;;;;;;;;;;;18.26;76.63;100368.00;5040494;28;20008;-68